createdAt,value
2022-12-18T00:03:28.314Z,102265.69
2022-12-18T00:08:30.807Z,102252.78
2022-12-18T00:13:33.309Z,102266.63
2022-12-18T00:18:36.143Z,102258.88
2022-12-18T00:23:40.712Z,102266.59
2022-12-18T00:28:44.807Z,102253.50
2022-12-18T00:33:47.689Z,102251.84
2022-12-18T00:38:52.790Z,102246.56
2022-12-18T00:43:55.144Z,102249.16
2022-12-18T00:48:57.673Z,102219.03
2022-12-18T00:54:00.243Z,102235.13
2022-12-18T00:59:02.685Z,102224.09
2022-12-18T01:04:06.710Z,102227.38
2022-12-18T01:09:09.160Z,102216.94
2022-12-18T01:14:12.779Z,102213.44
2022-12-18T01:19:15.282Z,102219.41
2022-12-18T01:24:17.660Z,102228.97
2022-12-18T01:29:20.115Z,102231.56
2022-12-18T01:34:22.862Z,102235.13
2022-12-18T01:39:25.405Z,102223.75
2022-12-18T01:44:49.682Z,102217.53
2022-12-18T01:49:52.757Z,102211.72
2022-12-18T01:54:56.823Z,102217.75
2022-12-18T02:00:03.406Z,102203.81
2022-12-18T02:05:20.119Z,102215.09
2022-12-18T02:10:29.082Z,102219.59
2022-12-18T02:15:51.717Z,102218.66
2022-12-18T02:21:32.674Z,102199.69
2022-12-18T02:26:45.859Z,102212.63
2022-12-18T02:32:00.758Z,102216.94
2022-12-18T02:37:07.052Z,102207.59
2022-12-18T02:42:11.397Z,102221.25
2022-12-18T02:47:16.147Z,102218.59
2022-12-18T02:52:27.736Z,102221.16
2022-12-18T02:57:45.738Z,102204.41
2022-12-18T03:03:13.550Z,102199.16
2022-12-18T03:08:23.017Z,102197.44
2022-12-18T03:13:41.472Z,102186.06
2022-12-18T03:19:00.187Z,102182.56
2022-12-18T03:24:07.351Z,102173.75
2022-12-18T03:29:16.301Z,102172.88
2022-12-18T03:34:25.051Z,102170.34
2022-12-18T03:39:27.663Z,102183.38
2022-12-18T03:44:45.299Z,102207.06
2022-12-18T03:50:24.342Z,102204.50
2022-12-18T03:55:31.812Z,102189.69
2022-12-18T04:00:39.270Z,102177.66
2022-12-18T04:05:47.007Z,102142.03
2022-12-18T04:10:51.048Z,102159.16
2022-12-18T04:15:54.616Z,102176.66
2022-12-18T04:20:58.041Z,102187.09
2022-12-18T04:26:01.290Z,102152.66
2022-12-18T04:31:27.485Z,102184.44
2022-12-18T04:36:30.248Z,102186.16
2022-12-18T04:41:32.633Z,102173.09
2022-12-18T04:46:38.802Z,102168.00
2022-12-18T04:51:41.454Z,102172.25
2022-12-18T04:56:43.908Z,102163.66
2022-12-18T05:01:47.247Z,102167.94
2022-12-18T05:06:49.862Z,102157.41
2022-12-18T05:11:52.334Z,102176.66
2022-12-18T05:16:57.962Z,102162.88
2022-12-18T05:22:03.356Z,102174.81
2022-12-18T05:27:05.830Z,102152.09
2022-12-18T05:32:08.198Z,102160.72
2022-12-18T05:37:10.664Z,102167.66
2022-12-18T05:42:13.122Z,102181.66
2022-12-18T05:47:15.714Z,102187.03
2022-12-18T05:52:18.223Z,102200.94
2022-12-18T05:57:20.701Z,102207.69
2022-12-18T06:02:23.351Z,102199.59
2022-12-18T06:07:25.861Z,102218.81
2022-12-18T06:12:28.342Z,102210.03
2022-12-18T06:17:31.856Z,102214.34
2022-12-18T06:22:34.783Z,102216.72
2022-12-18T06:27:37.151Z,102234.06
2022-12-18T06:32:39.569Z,102223.78
2022-12-18T06:37:42.006Z,102213.88
2022-12-18T06:42:44.455Z,102204.06
2022-12-18T06:47:46.925Z,102198.88
2022-12-18T06:52:49.324Z,102195.22
2022-12-18T06:57:51.866Z,102195.09
2022-12-18T07:02:54.349Z,102184.41
2022-12-18T07:07:57.095Z,102175.41
2022-12-18T07:12:59.501Z,102166.53
2022-12-18T07:18:01.954Z,102155.16
2022-12-18T07:23:06.483Z,102137.44
2022-12-18T07:28:12.847Z,102071.22
2022-12-18T07:33:19.578Z,102102.00
2022-12-18T07:38:22.156Z,102102.75
2022-12-18T07:43:24.572Z,102126.44
2022-12-18T07:48:27.044Z,102132.22
2022-12-18T07:53:29.665Z,102113.13
2022-12-18T07:58:32.774Z,102115.75
2022-12-18T08:03:35.767Z,102100.78
2022-12-18T08:08:38.510Z,102125.81
2022-12-18T08:13:41.219Z,102101.13
2022-12-18T08:18:44.067Z,102081.88
2022-12-18T08:23:46.757Z,102100.59
2022-12-18T08:28:50.468Z,102089.03
2022-12-18T08:33:54.126Z,102089.28
2022-12-18T08:38:58.383Z,102086.25
2022-12-18T08:44:19.704Z,102074.88
2022-12-18T08:49:22.116Z,102081.69
2022-12-18T08:54:26.068Z,102072.38
2022-12-18T08:59:31.464Z,102065.09
2022-12-18T09:04:33.979Z,102132.44
2022-12-18T09:09:37.146Z,102080.88
2022-12-18T09:14:39.621Z,102081.84
2022-12-18T09:19:42.137Z,102060.53
2022-12-18T09:24:45.038Z,102061.09
2022-12-18T09:29:47.840Z,102054.94
2022-12-18T09:34:50.691Z,102032.94
2022-12-18T09:39:53.085Z,102013.75
2022-12-18T09:44:56.000Z,102066.94
2022-12-18T09:50:03.186Z,102033.25
2022-12-18T09:55:24.046Z,102031.44
2022-12-18T10:00:27.061Z,102016.72
2022-12-18T10:05:40.234Z,102030.59
2022-12-18T10:10:54.312Z,102018.56
2022-12-18T10:16:26.731Z,101994.75
2022-12-18T10:21:35.195Z,102008.38
2022-12-18T10:26:37.774Z,101994.25
2022-12-18T10:31:40.688Z,101987.69
2022-12-18T10:36:43.740Z,101975.09
2022-12-18T10:41:46.581Z,101985.84
2022-12-18T10:47:10.073Z,101967.56
2022-12-18T10:52:19.389Z,101962.88
2022-12-18T10:57:36.901Z,101926.25
2022-12-18T11:02:40.338Z,101955.66
2022-12-18T11:07:51.531Z,101952.84
2022-12-18T11:12:54.009Z,101932.03
2022-12-18T11:17:56.854Z,101938.25
2022-12-18T11:23:05.854Z,101960.38
2022-12-18T11:28:28.284Z,101950.78
2022-12-18T11:33:31.080Z,101946.56
2022-12-18T11:38:44.126Z,101957.81
2022-12-18T11:44:00.323Z,101960.53
2022-12-18T11:49:29.843Z,101924.69
2022-12-18T11:54:32.721Z,101942.38
2022-12-18T11:59:50.136Z,101916.97
2022-12-18T12:05:21.178Z,101920.28
2022-12-18T12:10:29.722Z,101915.16
2022-12-18T12:15:52.540Z,101918.69
2022-12-18T12:20:55.032Z,101919.69
2022-12-18T12:26:20.539Z,101915.56
2022-12-18T12:31:35.446Z,101907.97
2022-12-18T12:37:13.192Z,101932.97
2022-12-18T12:43:06.102Z,101934.25
2022-12-18T12:48:18.906Z,101926.38
2022-12-18T12:53:36.843Z,101945.38
2022-12-18T12:59:20.598Z,101935.13
2022-12-18T13:04:42.535Z,101943.00
2022-12-18T13:10:12.772Z,101943.75
2022-12-18T13:15:46.231Z,101966.50
2022-12-18T13:21:03.162Z,101964.78
2022-12-18T13:26:07.261Z,101953.41
2022-12-18T13:31:09.620Z,101945.16
2022-12-18T13:36:24.409Z,101931.88
2022-12-18T13:41:29.521Z,101932.97
2022-12-18T13:46:43.688Z,101920.16
2022-12-18T13:51:51.109Z,101907.22
2022-12-18T13:56:55.252Z,101901.09
2022-12-18T14:02:00.325Z,101903.75
2022-12-18T14:07:18.321Z,101901.41
2022-12-18T14:12:45.859Z,101910.03
2022-12-18T14:17:52.364Z,101922.00
2022-12-18T14:22:59.092Z,101904.72
2022-12-18T14:28:08.685Z,101936.41
2022-12-18T14:33:15.589Z,101928.44
2022-12-18T14:38:21.516Z,101933.78
2022-12-18T14:43:24.274Z,101929.59
2022-12-18T14:48:40.034Z,101939.13
2022-12-18T14:53:52.101Z,101917.28
2022-12-18T14:59:03.517Z,101934.63
2022-12-18T15:04:24.770Z,101925.72
2022-12-18T15:09:27.639Z,101914.25
2022-12-18T15:14:42.896Z,101890.38
2022-12-18T15:19:47.278Z,101899.09
2022-12-18T15:24:50.244Z,101896.47
2022-12-18T15:30:17.446Z,101903.69
2022-12-18T15:35:25.269Z,101907.69
2022-12-18T15:40:27.789Z,101939.16
2022-12-18T15:45:30.575Z,101935.66
2022-12-18T15:50:35.916Z,101918.78
2022-12-18T15:56:01.026Z,101902.00
2022-12-18T16:01:03.994Z,101920.50
2022-12-18T16:06:06.713Z,101909.03
2022-12-18T16:11:41.902Z,101903.09
2022-12-18T16:16:44.779Z,101938.22
2022-12-18T16:21:48.801Z,101941.75
2022-12-18T16:26:55.310Z,101951.44
2022-12-18T16:31:59.294Z,101946.13
2022-12-18T16:37:06.064Z,101943.34
2022-12-18T16:42:20.802Z,101936.41
2022-12-18T16:47:23.437Z,101947.81
2022-12-18T16:52:26.340Z,101951.56
2022-12-18T16:57:28.856Z,101945.38
2022-12-18T17:02:31.478Z,101934.91
2022-12-18T17:07:36.346Z,101919.97
2022-12-18T17:12:39.303Z,101920.31
2022-12-18T17:17:41.752Z,101924.56
2022-12-18T17:22:44.195Z,101923.88
2022-12-18T17:27:46.661Z,101917.78
2022-12-18T17:32:49.094Z,101927.13
2022-12-18T17:37:51.615Z,101924.25
2022-12-18T17:42:54.131Z,101942.63
2022-12-18T17:47:59.991Z,101939.22
2022-12-18T17:53:03.288Z,101933.84
2022-12-18T17:58:05.734Z,101915.47
2022-12-18T18:03:08.872Z,101903.13
2022-12-18T18:08:11.457Z,101907.44
2022-12-18T18:13:51.988Z,101905.53
2022-12-18T18:18:57.863Z,101903.56
2022-12-18T18:24:05.307Z,101911.34
2022-12-18T18:29:15.162Z,101920.22
2022-12-18T18:34:25.276Z,101918.03
2022-12-18T18:39:28.327Z,101923.63
2022-12-18T18:44:30.954Z,101944.22
2022-12-18T18:49:33.462Z,101951.00
2022-12-18T18:54:35.983Z,101942.06
2022-12-18T18:59:38.712Z,101926.34
2022-12-18T19:04:46.084Z,101929.50
2022-12-18T19:09:52.630Z,101938.28
2022-12-18T19:14:55.404Z,101945.97
2022-12-18T19:19:57.842Z,101944.69
2022-12-18T19:25:00.383Z,101938.38
2022-12-18T19:30:02.768Z,101950.94
2022-12-18T19:35:06.260Z,101936.13
2022-12-18T19:40:12.444Z,101960.41
2022-12-18T19:45:15.722Z,101958.00
2022-12-18T19:50:18.380Z,101966.75
2022-12-18T19:55:20.965Z,101976.81
2022-12-18T20:00:23.990Z,101973.75
2022-12-18T20:05:26.399Z,101974.25
2022-12-18T20:10:28.858Z,101981.19
2022-12-18T20:15:31.298Z,101978.56
2022-12-18T20:20:33.770Z,101984.84
2022-12-18T20:25:38.785Z,101988.50
2022-12-18T20:30:41.810Z,101998.84
2022-12-18T20:35:44.238Z,101999.59
2022-12-18T20:40:47.484Z,101995.78
2022-12-18T20:45:49.988Z,101978.88
2022-12-18T20:51:04.233Z,101992.63
2022-12-18T20:56:17.798Z,101987.44
2022-12-18T21:01:25.554Z,101996.81
2022-12-18T21:06:28.149Z,102001.38
2022-12-18T21:11:52.882Z,102002.16
2022-12-18T21:16:56.079Z,102017.16
2022-12-18T21:21:58.820Z,101995.28
2022-12-18T21:27:02.132Z,102022.34
2022-12-18T21:32:05.833Z,102031.00
2022-12-18T21:37:08.245Z,102024.50
2022-12-18T21:42:30.954Z,102057.28
2022-12-18T21:47:33.474Z,102059.75
2022-12-18T21:52:35.867Z,102066.81
2022-12-18T21:57:39.509Z,102076.63
2022-12-18T22:02:42.324Z,102066.72
2022-12-18T22:07:44.889Z,102076.03
2022-12-18T22:12:48.625Z,102075.13
2022-12-18T22:17:53.446Z,102082.09
2022-12-18T22:23:06.263Z,102081.13
2022-12-18T22:28:27.678Z,102078.94
2022-12-18T22:33:30.061Z,102093.38
2022-12-18T22:38:32.495Z,102085.47
2022-12-18T22:43:34.974Z,102096.00
2022-12-18T22:48:37.333Z,102089.59
2022-12-18T22:53:39.804Z,102100.88
2022-12-18T22:58:48.701Z,102097.63
2022-12-18T23:03:52.275Z,102123.34
2022-12-18T23:08:58.381Z,102123.13
2022-12-18T23:14:00.801Z,102140.75
2022-12-18T23:19:04.369Z,102120.19
2022-12-18T23:24:07.241Z,102142.47
2022-12-18T23:29:09.937Z,102154.72
2022-12-18T23:34:14.054Z,102157.22
2022-12-18T23:39:29.092Z,102165.47
2022-12-18T23:44:32.438Z,102153.78
2022-12-18T23:49:34.856Z,102150.47
2022-12-18T23:54:38.212Z,102143.91
2022-12-18T23:59:40.763Z,102157.75
